createdAt,value
2018-08-04T00:01:21.605Z,49.80
2018-08-04T00:03:49.944Z,49.80
2018-08-04T00:06:18.258Z,49.90
2018-08-04T00:08:46.658Z,50.00
2018-08-04T00:11:14.918Z,50.00
2018-08-04T00:13:43.202Z,50.00
2018-08-04T00:16:11.639Z,50.00
2018-08-04T00:18:39.928Z,50.10
2018-08-04T00:21:08.198Z,50.00
2018-08-04T00:23:36.462Z,49.90
2018-08-04T00:28:32.717Z,50.20
2018-08-04T00:33:28.994Z,50.20
2018-08-04T00:35:57.270Z,50.20
2018-08-04T00:38:25.613Z,50.20
2018-08-04T00:40:53.930Z,50.30
2018-08-04T00:43:22.267Z,50.20
2018-08-04T00:45:50.534Z,50.30
2018-08-04T00:48:18.852Z,50.30
2018-08-04T00:50:47.126Z,51.00
2018-08-04T00:53:15.430Z,50.40
2018-08-04T00:55:43.709Z,50.40
2018-08-04T00:58:11.980Z,50.40
2018-08-04T01:00:40.261Z,50.50
2018-08-04T01:03:08.233Z,50.40
2018-08-04T01:05:36.501Z,50.50
2018-08-04T01:08:04.809Z,50.50
2018-08-04T01:10:33.119Z,50.50
2018-08-04T01:13:01.430Z,51.20
2018-08-04T01:15:29.681Z,50.60
2018-08-04T01:17:57.950Z,50.60
2018-08-04T01:20:26.202Z,50.70
2018-08-04T01:22:54.474Z,50.70
2018-08-04T01:25:22.740Z,50.70
2018-08-04T01:27:51.043Z,50.70
2018-08-04T01:30:19.288Z,50.70
2018-08-04T01:32:47.586Z,50.80
2018-08-04T01:35:15.862Z,50.80
2018-08-04T01:37:44.186Z,50.80
2018-08-04T01:40:12.533Z,50.80
2018-08-04T01:42:40.819Z,50.80
2018-08-04T01:45:09.096Z,50.90
2018-08-04T01:47:37.377Z,50.90
2018-08-04T01:50:06.096Z,51.00
2018-08-04T01:52:34.410Z,51.00
2018-08-04T01:55:02.669Z,51.00
2018-08-04T01:57:30.981Z,51.30
2018-08-04T01:59:59.296Z,51.10
2018-08-04T02:02:27.586Z,51.10
2018-08-04T02:04:55.897Z,51.00
2018-08-04T02:07:24.225Z,51.10
2018-08-04T02:09:52.565Z,51.10
2018-08-04T02:12:20.877Z,51.10
2018-08-04T02:14:49.166Z,51.20
2018-08-04T02:17:17.445Z,51.20
2018-08-04T02:19:45.755Z,51.20
2018-08-04T02:22:14.026Z,51.20
2018-08-04T02:24:42.298Z,51.20
2018-08-04T02:27:10.578Z,51.20
2018-08-04T02:29:38.880Z,51.30
2018-08-04T02:32:07.142Z,51.30
2018-08-04T02:34:35.456Z,51.40
2018-08-04T02:37:04.062Z,51.40
2018-08-04T02:39:32.376Z,51.40
2018-08-04T02:42:00.649Z,51.40
2018-08-04T02:44:28.957Z,51.40
2018-08-04T02:46:57.277Z,51.40
2018-08-04T02:51:53.590Z,51.50
2018-08-04T02:54:21.844Z,51.50
2018-08-04T02:56:50.153Z,51.60
2018-08-04T02:59:18.458Z,51.60
2018-08-04T03:01:46.742Z,51.60
2018-08-04T03:04:15.044Z,51.60
2018-08-04T03:06:43.610Z,51.70
2018-08-04T03:09:12.763Z,51.70
2018-08-04T03:11:42.157Z,51.70
2018-08-04T03:14:10.461Z,51.80
2018-08-04T03:16:38.738Z,51.80
2018-08-04T03:19:07.015Z,51.80
2018-08-04T03:21:35.294Z,51.70
2018-08-04T03:24:03.594Z,51.80
2018-08-04T03:26:31.886Z,51.80
2018-08-04T03:29:00.156Z,51.80
2018-08-04T03:31:28.484Z,51.90
2018-08-04T03:33:56.733Z,51.90
2018-08-04T03:36:25.017Z,51.90
2018-08-04T03:38:53.301Z,52.00
2018-08-04T03:41:21.588Z,52.00
2018-08-04T03:43:49.878Z,52.10
2018-08-04T03:46:18.208Z,52.10
2018-08-04T03:48:46.498Z,52.00
2018-08-04T03:51:14.768Z,52.00
2018-08-04T03:53:43.052Z,52.00
2018-08-04T03:56:11.331Z,52.20
2018-08-04T03:58:39.640Z,52.20
2018-08-04T04:01:07.924Z,52.20
2018-08-04T04:03:36.185Z,52.20
2018-08-04T04:06:04.488Z,52.30
2018-08-04T04:08:32.791Z,53.00
2018-08-04T04:11:01.078Z,52.30
2018-08-04T04:13:29.361Z,52.40
2018-08-04T04:15:57.632Z,52.40
2018-08-04T04:18:25.925Z,52.40
2018-08-04T04:20:54.241Z,52.40
2018-08-04T04:23:22.613Z,52.40
2018-08-04T04:25:52.641Z,52.50
2018-08-04T04:28:21.025Z,52.50
2018-08-04T04:30:49.518Z,52.40
2018-08-04T04:33:18.593Z,52.40
2018-08-04T04:35:46.966Z,52.50
2018-08-04T04:38:16.250Z,52.50
2018-08-04T04:40:44.853Z,52.50
2018-08-04T04:43:13.157Z,52.60
2018-08-04T04:45:41.469Z,52.60
2018-08-04T04:48:09.833Z,52.60
2018-08-04T04:50:38.153Z,53.00
2018-08-04T04:53:06.501Z,52.50
2018-08-04T04:55:34.757Z,52.50
2018-08-04T04:58:03.037Z,52.50
2018-08-04T05:00:31.342Z,53.00
2018-08-04T05:02:59.618Z,52.40
2018-08-04T05:07:55.898Z,52.40
2018-08-04T05:10:24.161Z,52.30
2018-08-04T05:12:52.470Z,52.30
2018-08-04T05:15:21.086Z,52.30
2018-08-04T05:17:49.369Z,52.90
2018-08-04T05:20:17.659Z,52.30
2018-08-04T05:22:47.630Z,52.20
2018-08-04T05:25:16.623Z,52.10
2018-08-04T05:27:46.111Z,52.10
2018-08-04T05:32:42.966Z,52.10
2018-08-04T05:35:11.254Z,52.00
2018-08-04T05:37:40.151Z,51.90
2018-08-04T05:40:08.871Z,51.70
2018-08-04T05:42:37.205Z,51.60
2018-08-04T05:45:06.770Z,51.50
2018-08-04T05:47:35.486Z,51.60
2018-08-04T05:50:07.213Z,51.40
2018-08-04T05:52:35.825Z,51.20
2018-08-04T05:55:04.656Z,51.20
2018-08-04T05:57:32.969Z,51.10
2018-08-04T06:00:01.251Z,51.10
2018-08-04T06:02:29.633Z,51.10
2018-08-04T06:04:58.556Z,51.00
2018-08-04T06:07:27.010Z,51.10
2018-08-04T06:09:57.135Z,51.00
2018-08-04T06:12:25.518Z,51.00
2018-08-04T06:14:53.873Z,51.10
2018-08-04T06:17:22.316Z,52.20
2018-08-04T06:19:50.737Z,51.40
2018-08-04T06:22:19.088Z,51.30
2018-08-04T06:24:47.409Z,51.50
2018-08-04T06:27:15.669Z,51.20
2018-08-04T06:29:43.962Z,51.60
2018-08-04T06:32:12.311Z,51.20
2018-08-04T06:34:40.674Z,51.20
2018-08-04T06:37:08.982Z,52.30
2018-08-04T06:39:37.253Z,51.20
2018-08-04T06:42:05.606Z,51.70
2018-08-04T06:44:33.976Z,51.40
2018-08-04T06:47:02.308Z,51.40
2018-08-04T06:49:30.799Z,50.80
2018-08-04T06:51:59.135Z,50.70
2018-08-04T06:54:27.781Z,50.50
2018-08-04T06:56:56.082Z,50.70
2018-08-04T06:59:24.353Z,50.90
2018-08-04T07:01:52.647Z,50.60
2018-08-04T07:04:20.968Z,50.70
2018-08-04T07:06:49.218Z,50.40
2018-08-04T07:09:17.541Z,50.20
2018-08-04T07:11:45.797Z,50.30
2018-08-04T07:14:14.163Z,50.30
2018-08-04T07:16:42.421Z,50.10
2018-08-04T07:19:10.687Z,50.10
2018-08-04T07:21:39.000Z,50.10
2018-08-04T07:24:07.333Z,50.50
2018-08-04T07:26:35.660Z,50.50
2018-08-04T07:29:03.974Z,50.30
2018-08-04T07:31:33.645Z,50.50
2018-08-04T07:34:01.960Z,50.80
2018-08-04T07:36:30.236Z,50.80
2018-08-04T07:38:58.604Z,50.50
2018-08-04T07:41:26.957Z,50.60
2018-08-04T07:43:55.273Z,51.20
2018-08-04T07:46:23.565Z,52.90
2018-08-04T07:48:51.832Z,51.40
2018-08-04T07:51:20.169Z,51.90
2018-08-04T07:53:48.455Z,51.10
2018-08-04T07:56:17.579Z,51.30
2018-08-04T07:58:45.957Z,50.80
2018-08-04T08:01:14.283Z,51.10
2018-08-04T08:03:42.593Z,50.90
2018-08-04T08:06:10.933Z,51.10
2018-08-04T08:08:39.258Z,51.20
2018-08-04T08:11:07.727Z,52.90
2018-08-04T08:13:36.052Z,51.30
2018-08-04T08:16:04.410Z,51.20
2018-08-04T08:18:32.697Z,50.80
2018-08-04T08:21:00.962Z,50.60
2018-08-04T08:23:29.282Z,50.50
2018-08-04T08:26:06.996Z,50.90
2018-08-04T08:28:35.273Z,50.80
2018-08-04T08:31:03.643Z,51.00
2018-08-04T08:33:32.034Z,50.40
2018-08-04T08:36:00.316Z,50.30
2018-08-04T08:38:29.504Z,50.20
2018-08-04T08:40:58.070Z,50.30
2018-08-04T08:43:26.542Z,49.90
2018-08-04T08:45:54.825Z,49.80
2018-08-04T08:48:23.187Z,49.60
2018-08-04T08:50:51.454Z,50.20
2018-08-04T08:53:19.969Z,49.90
2018-08-04T08:55:48.176Z,49.40
2018-08-04T08:58:16.461Z,49.10
2018-08-04T09:00:44.774Z,48.40
2018-08-04T09:03:13.039Z,49.10
2018-08-04T09:05:41.377Z,48.20
2018-08-04T09:08:09.669Z,48.80
2018-08-04T09:10:37.973Z,49.10
2018-08-04T09:13:06.286Z,48.50
2018-08-04T09:15:34.869Z,48.60
2018-08-04T09:18:03.146Z,48.70
2018-08-04T09:20:31.912Z,48.70
2018-08-04T09:23:00.269Z,48.80
2018-08-04T09:27:56.585Z,48.80
2018-08-04T09:30:24.869Z,48.80
2018-08-04T09:32:53.161Z,48.80
2018-08-04T09:35:21.437Z,48.60
2018-08-04T09:37:49.773Z,47.00
2018-08-04T09:40:18.024Z,46.50
2018-08-04T09:42:46.334Z,45.20
2018-08-04T09:45:14.616Z,46.90
2018-08-04T09:47:42.902Z,47.60
2018-08-04T09:50:12.506Z,47.60
2018-08-04T09:52:41.326Z,47.70
2018-08-04T09:55:11.300Z,47.80
2018-08-04T09:57:40.010Z,47.20
2018-08-04T10:00:15.188Z,47.40
2018-08-04T10:02:43.798Z,46.20
2018-08-04T10:05:12.240Z,45.80
2018-08-04T10:07:40.840Z,45.20
2018-08-04T10:10:10.156Z,46.80
2018-08-04T10:12:38.501Z,46.50
2018-08-04T10:15:08.202Z,47.10
2018-08-04T10:17:39.317Z,46.50
2018-08-04T10:20:09.302Z,46.80
2018-08-04T10:22:37.559Z,46.30
2018-08-04T10:25:06.162Z,46.60
2018-08-04T10:27:35.063Z,46.50
2018-08-04T10:30:03.587Z,46.40
2018-08-04T10:32:31.923Z,46.00
2018-08-04T10:35:00.153Z,46.10
2018-08-04T10:37:28.418Z,44.50
2018-08-04T10:39:57.707Z,44.00
2018-08-04T10:42:26.025Z,45.80
2018-08-04T10:44:54.331Z,44.40
2018-08-04T10:47:22.605Z,44.10
2018-08-04T10:49:50.915Z,42.30
2018-08-04T10:52:19.405Z,43.80
2018-08-04T10:54:47.774Z,44.30
2018-08-04T10:57:16.079Z,42.30
2018-08-04T10:59:44.445Z,39.60
2018-08-04T11:02:12.770Z,39.50
2018-08-04T11:04:41.077Z,39.80
2018-08-04T11:07:09.357Z,40.30
2018-08-04T11:09:37.648Z,40.30
2018-08-04T11:14:33.905Z,41.00
2018-08-04T11:19:30.317Z,39.90
2018-08-04T11:21:58.824Z,39.00
2018-08-04T11:24:27.338Z,41.20
2018-08-04T11:26:55.790Z,38.30
2018-08-04T11:29:24.151Z,39.80
2018-08-04T11:31:52.416Z,41.40
2018-08-04T11:34:20.697Z,41.40
2018-08-04T11:36:49.123Z,41.80
2018-08-04T11:39:17.365Z,42.20
2018-08-04T11:41:45.673Z,41.30
2018-08-04T11:44:14.013Z,38.50
2018-08-04T11:46:42.504Z,40.50
2018-08-04T11:49:10.753Z,41.90
2018-08-04T11:54:07.193Z,40.00
2018-08-04T11:56:35.489Z,37.90
2018-08-04T11:59:03.801Z,41.50
2018-08-04T12:01:32.071Z,39.80
2018-08-04T12:04:00.391Z,40.50
2018-08-04T12:06:28.698Z,38.60
2018-08-04T12:08:57.020Z,42.10
2018-08-04T12:11:25.319Z,41.90
2018-08-04T12:13:53.594Z,38.10
2018-08-04T12:16:21.874Z,42.10
2018-08-04T12:18:51.177Z,42.00
2018-08-04T12:21:19.465Z,36.30
2018-08-04T12:23:47.982Z,40.40
2018-08-04T12:26:18.625Z,41.20
2018-08-04T12:28:47.802Z,37.30
2018-08-04T12:31:16.093Z,39.70
2018-08-04T12:33:44.660Z,41.10
2018-08-04T12:36:12.933Z,41.10
2018-08-04T12:38:41.374Z,38.60
2018-08-04T12:41:09.765Z,37.50
2018-08-04T12:43:38.110Z,41.20
2018-08-04T12:46:06.385Z,41.30
2018-08-04T12:48:34.712Z,41.00
2018-08-04T12:51:03.192Z,36.70
2018-08-04T12:53:32.039Z,41.30
2018-08-04T12:56:00.928Z,41.50
2018-08-04T12:58:29.241Z,41.60
2018-08-04T13:00:57.490Z,41.40
2018-08-04T13:03:25.777Z,41.40
2018-08-04T13:05:54.399Z,41.30
2018-08-04T13:08:22.645Z,41.50
2018-08-04T13:10:51.142Z,34.10
2018-08-04T13:13:19.725Z,39.40
2018-08-04T13:15:48.015Z,39.00
2018-08-04T13:18:16.322Z,37.10
2018-08-04T13:20:44.678Z,38.90
2018-08-04T13:23:12.955Z,41.50
2018-08-04T13:28:09.399Z,42.10
2018-08-04T13:30:37.745Z,40.80
2018-08-04T13:33:06.318Z,41.00
2018-08-04T13:35:34.596Z,40.80
2018-08-04T13:38:02.893Z,38.80
2018-08-04T13:40:31.224Z,36.00
2018-08-04T13:42:59.530Z,39.30
2018-08-04T13:45:27.768Z,40.10
2018-08-04T13:47:56.230Z,40.90
2018-08-04T13:50:24.597Z,40.60
2018-08-04T13:52:53.213Z,38.50
2018-08-04T13:55:21.684Z,40.30
2018-08-04T13:57:50.141Z,38.70
2018-08-04T14:00:18.492Z,37.60
2018-08-04T14:02:46.764Z,36.60
2018-08-04T14:05:15.378Z,37.80
2018-08-04T14:07:43.654Z,38.30
2018-08-04T14:10:12.119Z,38.20
2018-08-04T14:12:40.521Z,39.20
2018-08-04T14:15:08.898Z,38.30
2018-08-04T14:17:37.229Z,40.40
2018-08-04T14:20:05.508Z,41.30
2018-08-04T14:22:33.861Z,41.30
2018-08-04T14:25:02.146Z,41.00
2018-08-04T14:27:30.426Z,39.90
2018-08-04T14:29:58.705Z,41.60
2018-08-04T14:32:27.053Z,37.30
2018-08-04T14:34:55.413Z,41.10
2018-08-04T14:37:23.625Z,40.40
2018-08-04T14:39:51.901Z,39.90
2018-08-04T14:42:20.261Z,37.80
2018-08-04T14:44:48.573Z,34.70
2018-08-04T14:47:16.902Z,36.20
2018-08-04T14:49:45.154Z,37.80
2018-08-04T14:52:13.461Z,39.80
2018-08-04T14:54:41.834Z,39.60
2018-08-04T14:57:10.146Z,39.50
2018-08-04T14:59:38.478Z,40.20
2018-08-04T15:02:07.099Z,38.50
2018-08-04T15:04:35.435Z,37.00
2018-08-04T15:07:03.723Z,37.80
2018-08-04T15:09:32.009Z,38.20
2018-08-04T15:12:00.308Z,39.70
2018-08-04T15:14:28.605Z,39.40
2018-08-04T15:16:56.933Z,39.30
2018-08-04T15:19:25.197Z,38.90
2018-08-04T15:21:53.549Z,40.10
2018-08-04T15:24:21.833Z,37.00
2018-08-04T15:26:50.131Z,38.80
2018-08-04T15:29:18.418Z,39.00
2018-08-04T15:31:46.701Z,39.30
2018-08-04T15:34:15.017Z,39.80
2018-08-04T15:36:43.325Z,36.70
2018-08-04T15:39:12.090Z,36.40
2018-08-04T15:41:40.712Z,38.70
2018-08-04T15:44:09.150Z,36.60
2018-08-04T15:46:38.194Z,39.30
2018-08-04T15:49:06.469Z,35.90
2018-08-04T15:51:34.761Z,39.50
2018-08-04T15:54:03.125Z,39.60
2018-08-04T15:56:31.407Z,33.80
2018-08-04T15:58:59.697Z,37.20
2018-08-04T16:01:28.035Z,38.10
2018-08-04T16:03:56.273Z,39.40
2018-08-04T16:06:24.574Z,36.20
2018-08-04T16:08:52.844Z,38.30
2018-08-04T16:11:21.133Z,38.00
2018-08-04T16:13:49.402Z,38.80
2018-08-04T16:16:17.668Z,39.40
2018-08-04T16:18:45.946Z,40.00
2018-08-04T16:21:14.293Z,40.00
2018-08-04T16:23:42.602Z,39.20
2018-08-04T16:26:10.899Z,38.30
2018-08-04T16:28:39.549Z,38.10
2018-08-04T16:31:07.863Z,38.70
2018-08-04T16:33:36.170Z,37.30
2018-08-04T16:36:04.494Z,38.80
2018-08-04T16:38:32.775Z,38.00
2018-08-04T16:41:01.075Z,38.60
2018-08-04T16:43:29.413Z,38.40
2018-08-04T16:45:57.677Z,39.30
2018-08-04T16:48:25.946Z,38.80
2018-08-04T16:50:54.254Z,36.10
2018-08-04T16:53:22.530Z,38.50
2018-08-04T16:55:50.821Z,39.60
2018-08-04T16:58:19.122Z,38.60
2018-08-04T17:00:47.406Z,39.00
2018-08-04T17:03:15.689Z,37.90
2018-08-04T17:05:44.074Z,38.70
2018-08-04T17:08:12.471Z,39.20
2018-08-04T17:10:40.750Z,39.10
2018-08-04T17:13:09.014Z,39.40
2018-08-04T17:15:37.330Z,33.90
2018-08-04T17:18:05.651Z,39.80
2018-08-04T17:20:33.893Z,37.90
2018-08-04T17:23:02.185Z,39.10
2018-08-04T17:25:30.550Z,39.10
2018-08-04T17:27:58.850Z,39.40
2018-08-04T17:30:27.175Z,38.90
2018-08-04T17:32:55.455Z,39.50
2018-08-04T17:35:23.761Z,38.40
2018-08-04T17:37:52.545Z,40.70
2018-08-04T17:40:20.863Z,36.70
2018-08-04T17:42:49.173Z,40.40
2018-08-04T17:45:17.446Z,38.20
2018-08-04T17:47:45.745Z,40.50
2018-08-04T17:50:14.039Z,40.80
2018-08-04T17:52:42.391Z,40.50
2018-08-04T17:55:10.665Z,39.20
2018-08-04T17:57:38.969Z,40.20
2018-08-04T18:00:07.419Z,35.80
2018-08-04T18:02:35.729Z,35.10
2018-08-04T18:05:04.070Z,35.00
2018-08-04T18:07:32.337Z,35.30
2018-08-04T18:10:00.621Z,37.20
2018-08-04T18:12:28.890Z,37.40
2018-08-04T18:14:57.193Z,37.60
2018-08-04T18:17:25.545Z,38.30
2018-08-04T18:19:53.825Z,38.00
2018-08-04T18:22:22.157Z,38.20
2018-08-04T18:24:50.590Z,38.10
2018-08-04T18:27:18.885Z,38.80
2018-08-04T18:29:47.221Z,37.90
2018-08-04T18:32:15.526Z,37.40
2018-08-04T18:34:43.829Z,37.90
2018-08-04T18:37:12.324Z,37.10
2018-08-04T18:39:40.603Z,38.00
2018-08-04T18:42:08.890Z,39.50
2018-08-04T18:44:37.213Z,39.60
2018-08-04T18:47:05.440Z,39.00
2018-08-04T18:49:33.773Z,39.10
2018-08-04T18:52:02.043Z,40.10
2018-08-04T18:54:30.323Z,39.10
2018-08-04T18:56:58.599Z,40.20
2018-08-04T18:59:26.885Z,40.10
2018-08-04T19:01:55.201Z,40.60
2018-08-04T19:04:23.485Z,41.00
2018-08-04T19:06:51.757Z,41.20
2018-08-04T19:11:48.088Z,41.50
2018-08-04T19:14:16.429Z,41.50
2018-08-04T19:16:44.669Z,41.40
2018-08-04T19:19:12.955Z,41.40
2018-08-04T19:21:41.230Z,41.70
2018-08-04T19:24:09.539Z,41.90
2018-08-04T19:26:37.870Z,42.10
2018-08-04T19:29:06.156Z,42.10
2018-08-04T19:31:34.443Z,42.30
2018-08-04T19:34:02.738Z,42.40
2018-08-04T19:36:31.028Z,42.40
2018-08-04T19:38:59.349Z,42.50
2018-08-04T19:41:27.649Z,43.30
2018-08-04T19:43:56.013Z,42.70
2018-08-04T19:46:24.288Z,42.70
2018-08-04T19:48:52.640Z,42.70
2018-08-04T19:51:20.912Z,42.90
2018-08-04T19:53:49.196Z,42.90
2018-08-04T19:56:17.518Z,43.00
2018-08-04T19:58:45.810Z,43.00
2018-08-04T20:01:14.078Z,43.10
2018-08-04T20:03:42.599Z,43.20
2018-08-04T20:06:10.870Z,43.20
2018-08-04T20:08:39.178Z,43.20
2018-08-04T20:11:07.458Z,43.40
2018-08-04T20:13:35.757Z,43.40
2018-08-04T20:16:04.045Z,43.40
2018-08-04T20:18:32.327Z,43.50
2018-08-04T20:21:00.606Z,43.60
2018-08-04T20:23:28.866Z,44.40
2018-08-04T20:25:57.158Z,43.70
2018-08-04T20:28:25.441Z,43.80
2018-08-04T20:30:53.755Z,43.90
2018-08-04T20:33:22.013Z,43.90
2018-08-04T20:35:50.277Z,43.90
2018-08-04T20:38:18.573Z,44.00
2018-08-04T20:40:46.860Z,44.10
2018-08-04T20:45:43.138Z,44.10
2018-08-04T20:48:11.395Z,44.30
2018-08-04T20:50:39.690Z,44.30
2018-08-04T20:53:07.974Z,44.30
2018-08-04T20:55:36.583Z,44.40
2018-08-04T20:58:04.863Z,44.50
2018-08-04T21:00:38.039Z,44.50
2018-08-04T21:03:06.877Z,44.60
2018-08-04T21:05:35.164Z,44.60
2018-08-04T21:08:03.458Z,44.70
2018-08-04T21:10:31.754Z,44.80
2018-08-04T21:13:00.016Z,44.80
2018-08-04T21:15:28.301Z,44.90
2018-08-04T21:17:56.611Z,45.00
2018-08-04T21:20:24.909Z,45.00
2018-08-04T21:22:53.148Z,45.00
2018-08-04T21:25:21.471Z,45.10
2018-08-04T21:27:49.741Z,45.20
2018-08-04T21:30:18.017Z,45.20
2018-08-04T21:32:46.307Z,45.20
2018-08-04T21:35:14.625Z,45.20
2018-08-04T21:37:42.927Z,45.20
2018-08-04T21:40:11.598Z,45.30
2018-08-04T21:42:39.914Z,45.40
2018-08-04T21:47:36.588Z,46.00
2018-08-04T21:52:34.166Z,45.50
2018-08-04T21:55:03.254Z,45.60
2018-08-04T21:57:32.518Z,45.60
2018-08-04T22:00:01.061Z,45.60
2018-08-04T22:02:30.060Z,45.70
2018-08-04T22:04:58.584Z,45.80
2018-08-04T22:07:40.063Z,45.70
2018-08-04T22:10:08.749Z,45.20
2018-08-04T22:12:37.241Z,45.80
2018-08-04T22:15:07.193Z,45.70
2018-08-04T22:17:35.898Z,45.80
2018-08-04T22:20:04.877Z,45.80
2018-08-04T22:22:33.261Z,45.90
2018-08-04T22:25:01.869Z,45.80
2018-08-04T22:27:30.774Z,45.80
2018-08-04T22:29:59.237Z,45.80
2018-08-04T22:32:27.633Z,45.90
2018-08-04T22:34:55.988Z,45.90
2018-08-04T22:37:24.339Z,46.00
2018-08-04T22:39:53.041Z,46.00
2018-08-04T22:42:21.685Z,46.00
2018-08-04T22:45:02.291Z,46.10
2018-08-04T22:47:30.959Z,46.10
2018-08-04T22:49:59.283Z,46.60
2018-08-04T22:52:27.741Z,46.10
2018-08-04T22:54:56.017Z,46.20
2018-08-04T22:57:24.285Z,46.20
2018-08-04T22:59:52.785Z,46.80
2018-08-04T23:02:21.045Z,46.20
2018-08-04T23:04:49.558Z,46.30
2018-08-04T23:07:17.845Z,46.20
2018-08-04T23:09:46.190Z,46.30
2018-08-04T23:12:14.674Z,46.40
2018-08-04T23:14:42.974Z,46.40
2018-08-04T23:17:11.520Z,46.40
2018-08-04T23:19:39.845Z,46.40
2018-08-04T23:22:08.246Z,46.50
2018-08-04T23:24:36.507Z,46.50
2018-08-04T23:27:05.329Z,46.50
2018-08-04T23:29:33.580Z,46.50
2018-08-04T23:32:01.869Z,46.60
2018-08-04T23:34:30.293Z,46.60
2018-08-04T23:37:06.274Z,46.60
2018-08-04T23:39:34.724Z,46.20
2018-08-04T23:42:03.001Z,46.40
2018-08-04T23:44:31.617Z,46.60
2018-08-04T23:47:00.045Z,45.80
2018-08-04T23:49:28.300Z,46.40
2018-08-04T23:51:56.761Z,46.30
2018-08-04T23:54:24.992Z,46.50
2018-08-04T23:56:53.272Z,46.40
2018-08-04T23:59:21.816Z,45.70
